Aérodrome :
LOGIN :

S'inscrire | Disclaimer

   EN    FR    IT 

 










Légende :    VFR   VFR Marginal   IFR   IFR Intensif   IFR Très Intensif
Visi : 
Plafond : 
>= 8 km
>= 3000ft
5 à 8 km
1000 à 3000 ft
1500m à 5 km
500 à 1000 ft
800 à 1500m
200 à 500 ft
< 800m
< 200 ft
Symboles :   Orages  Brouillard  Fortes neiges  Fortes précipitations  Vent > 20 kt
SIGMETs :   Divers  Orages  Givrage  Turbulence  Onde Orograph.  Cendres Volcan.







- Altitude de l'aérodrome : 53 ft
- Code IATA : AGP


LEMG - Malaga

DERNIER METAR :
  • 200830Z VRB02KT 9999 FEW030 BKN045 12/10 Q1011 NOSIG

METARs EXPIRÉS :
  • 200800Z 25005KT 9999 FEW030 BKN045 13/09 Q1011 NOSIG
  • 200730Z 00000KT 9999 FEW030 SCT050 11/08 Q1011 NOSIG
  • 200700Z 26003KT 9999 FEW040 SCT065 12/08 Q1011 NOSIG
  • 200630Z 30003KT 250V330 9999 FEW030 SCT060 11/08 Q1011 NOSIG
  • 200600Z VRB02KT 9999 FEW020 SCT060 11/09 Q1011 NOSIG
  • 200530Z 29003KT 250V330 9999 FEW020 SCT060 10/09 Q1011 NOSIG

TAF AMD TAF LEMG
Valide du 20 à 06h jusqu'au 21 à 06h UTC


200615Z 2006/2106 30005KT 9999 FEW025 SCT040 TX16/2014Z TN08/2006Z
PROB40
TEMPO 2006/2012 4000 SHRA FEW025CB
BECMG 2008/2010 31015KT
PROB40
TEMPO 2009/2018 31020G30KT
Pas de NOTAMs connus pour ce terrain.



MET'MAP, la Météo Aéronautique d'un coup d'oeil ! - Copyright ORBIFLY Décembre 2007 - Disclaimer

ORBIFLY MET'MAP TEAM :

Programmation & Développement : Alexandra Zaïnal
Conception & Développement : Baudouin d'Aumeries
Co-Programmation & Développement : Marc-Olivier Méhu
Soutien technique & logistique : Manuel Goepfert

Contact : metmap@orbifly.com




SOURCES & CREDITS :

   NOAA